sensor_id;sensor_type;location;lat;lon;timestamp;P1;durP1;ratioP1;P2;durP2;ratioP2
13012;SDS011;22580;57.670;12.006;2023-07-30T00:00:08;0.47;;;0.47;;
13012;SDS011;22580;57.670;12.006;2023-07-30T00:02:36;0.40;;;0.40;;
13012;SDS011;22580;57.670;12.006;2023-07-30T00:05:03;0.30;;;0.30;;
13012;SDS011;22580;57.670;12.006;2023-07-30T00:07:31;0.40;;;0.40;;
13012;SDS011;22580;57.670;12.006;2023-07-30T00:09:59;0.40;;;0.40;;
13012;SDS011;22580;57.670;12.006;2023-07-30T00:12:26;0.40;;;0.40;;
13012;SDS011;22580;57.670;12.006;2023-07-30T00:14:53;0.32;;;0.32;;
13012;SDS011;22580;57.670;12.006;2023-07-30T00:17:20;0.47;;;0.47;;
13012;SDS011;22580;57.670;12.006;2023-07-30T00:19:47;0.50;;;0.50;;
13012;SDS011;22580;57.670;12.006;2023-07-30T00:22:14;0.50;;;0.50;;
13012;SDS011;22580;57.670;12.006;2023-07-30T00:24:41;0.40;;;0.40;;
13012;SDS011;22580;57.670;12.006;2023-07-30T00:27:09;0.30;;;0.30;;
13012;SDS011;22580;57.670;12.006;2023-07-30T00:29:36;0.30;;;0.30;;
13012;SDS011;22580;57.670;12.006;2023-07-30T00:32:03;0.40;;;0.40;;
13012;SDS011;22580;57.670;12.006;2023-07-30T00:34:31;0.50;;;0.30;;
13012;SDS011;22580;57.670;12.006;2023-07-30T00:36:58;0.20;;;0.20;;
13012;SDS011;22580;57.670;12.006;2023-07-30T00:39:25;0.20;;;0.20;;
13012;SDS011;22580;57.670;12.006;2023-07-30T00:41:51;0.22;;;0.22;;
13012;SDS011;22580;57.670;12.006;2023-07-30T00:44:20;0.20;;;0.20;;
13012;SDS011;22580;57.670;12.006;2023-07-30T00:46:46;0.43;;;0.40;;
13012;SDS011;22580;57.670;12.006;2023-07-30T00:49:13;0.40;;;0.40;;
13012;SDS011;22580;57.670;12.006;2023-07-30T00:51:40;0.28;;;0.28;;
13012;SDS011;22580;57.670;12.006;2023-07-30T00:54:08;0.40;;;0.40;;
13012;SDS011;22580;57.670;12.006;2023-07-30T00:56:36;0.32;;;0.32;;
13012;SDS011;22580;57.670;12.006;2023-07-30T00:59:03;0.50;;;0.50;;
13012;SDS011;22580;57.670;12.006;2023-07-30T01:01:32;0.30;;;0.30;;
13012;SDS011;22580;57.670;12.006;2023-07-30T01:04:03;0.50;;;0.50;;
13012;SDS011;22580;57.670;12.006;2023-07-30T01:06:30;0.45;;;0.45;;
13012;SDS011;22580;57.670;12.006;2023-07-30T01:08:57;0.22;;;0.22;;
13012;SDS011;22580;57.670;12.006;2023-07-30T01:11:24;0.50;;;0.50;;
13012;SDS011;22580;57.670;12.006;2023-07-30T01:13:52;0.65;;;0.50;;
13012;SDS011;22580;57.670;12.006;2023-07-30T01:16:20;0.30;;;0.30;;
13012;SDS011;22580;57.670;12.006;2023-07-30T01:18:49;0.17;;;0.17;;
13012;SDS011;22580;57.670;12.006;2023-07-30T01:21:17;0.22;;;0.22;;
13012;SDS011;22580;57.670;12.006;2023-07-30T01:23:44;0.30;;;0.30;;
13012;SDS011;22580;57.670;12.006;2023-07-30T01:26:12;0.30;;;0.30;;
13012;SDS011;22580;57.670;12.006;2023-07-30T01:28:46;0.20;;;0.20;;
13012;SDS011;22580;57.670;12.006;2023-07-30T01:31:17;0.20;;;0.20;;
13012;SDS011;22580;57.670;12.006;2023-07-30T01:33:46;0.28;;;0.20;;
13012;SDS011;22580;57.670;12.006;2023-07-30T01:36:17;0.25;;;0.17;;
13012;SDS011;22580;57.670;12.006;2023-07-30T01:38:46;0.10;;;0.10;;
13012;SDS011;22580;57.670;12.006;2023-07-30T01:41:14;0.28;;;0.28;;
13012;SDS011;22580;57.670;12.006;2023-07-30T01:43:41;0.10;;;0.10;;
13012;SDS011;22580;57.670;12.006;2023-07-30T01:46:08;0.10;;;0.10;;
13012;SDS011;22580;57.670;12.006;2023-07-30T01:48:35;0.00;;;0.00;;
13012;SDS011;22580;57.670;12.006;2023-07-30T01:51:02;0.10;;;0.10;;
13012;SDS011;22580;57.670;12.006;2023-07-30T01:53:30;0.10;;;0.10;;
13012;SDS011;22580;57.670;12.006;2023-07-30T01:55:57;0.10;;;0.10;;
13012;SDS011;22580;57.670;12.006;2023-07-30T01:58:24;0.17;;;0.15;;
13012;SDS011;22580;57.670;12.006;2023-07-30T02:00:51;0.20;;;0.20;;
13012;SDS011;22580;57.670;12.006;2023-07-30T02:03:18;0.20;;;0.10;;
13012;SDS011;22580;57.670;12.006;2023-07-30T02:05:45;0.20;;;0.20;;
13012;SDS011;22580;57.670;12.006;2023-07-30T02:08:12;0.28;;;0.20;;
13012;SDS011;22580;57.670;12.006;2023-07-30T02:10:42;0.10;;;0.10;;
13012;SDS011;22580;57.670;12.006;2023-07-30T02:13:09;0.30;;;0.20;;
13012;SDS011;22580;57.670;12.006;2023-07-30T02:15:39;0.10;;;0.10;;
13012;SDS011;22580;57.670;12.006;2023-07-30T02:18:07;0.10;;;0.10;;
13012;SDS011;22580;57.670;12.006;2023-07-30T02:20:35;0.10;;;0.10;;
13012;SDS011;22580;57.670;12.006;2023-07-30T02:23:02;0.10;;;0.10;;
13012;SDS011;22580;57.670;12.006;2023-07-30T02:25:29;0.10;;;0.10;;
13012;SDS011;22580;57.670;12.006;2023-07-30T02:27:58;0.10;;;0.10;;
13012;SDS011;22580;57.670;12.006;2023-07-30T02:30:26;0.13;;;0.13;;
13012;SDS011;22580;57.670;12.006;2023-07-30T02:32:53;0.70;;;0.70;;
13012;SDS011;22580;57.670;12.006;2023-07-30T02:35:20;1.08;;;1.00;;
13012;SDS011;22580;57.670;12.006;2023-07-30T02:37:47;0.60;;;0.60;;
13012;SDS011;22580;57.670;12.006;2023-07-30T02:40:14;0.90;;;0.90;;
13012;SDS011;22580;57.670;12.006;2023-07-30T02:42:41;1.25;;;1.15;;
13012;SDS011;22580;57.670;12.006;2023-07-30T02:45:10;0.90;;;0.90;;
13012;SDS011;22580;57.670;12.006;2023-07-30T02:47:37;0.40;;;0.40;;
13012;SDS011;22580;57.670;12.006;2023-07-30T02:50:04;0.70;;;0.70;;
13012;SDS011;22580;57.670;12.006;2023-07-30T02:52:32;0.63;;;0.63;;
13012;SDS011;22580;57.670;12.006;2023-07-30T02:54:59;0.90;;;0.90;;
13012;SDS011;22580;57.670;12.006;2023-07-30T02:57:26;1.80;;;1.70;;
13012;SDS011;22580;57.670;12.006;2023-07-30T02:59:53;2.33;;;1.40;;
13012;SDS011;22580;57.670;12.006;2023-07-30T03:02:21;1.40;;;1.30;;
13012;SDS011;22580;57.670;12.006;2023-07-30T03:04:48;1.85;;;1.48;;
13012;SDS011;22580;57.670;12.006;2023-07-30T03:07:15;1.60;;;1.50;;
13012;SDS011;22580;57.670;12.006;2023-07-30T03:09:43;1.85;;;1.27;;
13012;SDS011;22580;57.670;12.006;2023-07-30T03:12:10;1.10;;;1.00;;
13012;SDS011;22580;57.670;12.006;2023-07-30T03:14:37;0.90;;;0.90;;
13012;SDS011;22580;57.670;12.006;2023-07-30T03:17:05;0.75;;;0.75;;
13012;SDS011;22580;57.670;12.006;2023-07-30T03:19:33;0.90;;;0.90;;
13012;SDS011;22580;57.670;12.006;2023-07-30T03:22:00;0.77;;;0.77;;
13012;SDS011;22580;57.670;12.006;2023-07-30T03:24:27;0.65;;;0.65;;
13012;SDS011;22580;57.670;12.006;2023-07-30T03:26:54;0.63;;;0.63;;
13012;SDS011;22580;57.670;12.006;2023-07-30T03:29:21;0.60;;;0.60;;
13012;SDS011;22580;57.670;12.006;2023-07-30T03:31:48;0.52;;;0.52;;
13012;SDS011;22580;57.670;12.006;2023-07-30T03:34:15;0.50;;;0.50;;
13012;SDS011;22580;57.670;12.006;2023-07-30T03:36:44;0.93;;;0.93;;
13012;SDS011;22580;57.670;12.006;2023-07-30T03:39:11;0.80;;;0.80;;
13012;SDS011;22580;57.670;12.006;2023-07-30T03:41:38;0.60;;;0.60;;
13012;SDS011;22580;57.670;12.006;2023-07-30T03:44:05;1.40;;;1.30;;
13012;SDS011;22580;57.670;12.006;2023-07-30T03:46:32;1.38;;;1.27;;
13012;SDS011;22580;57.670;12.006;2023-07-30T03:48:59;1.38;;;1.27;;
13012;SDS011;22580;57.670;12.006;2023-07-30T03:51:26;1.00;;;1.00;;
13012;SDS011;22580;57.670;12.006;2023-07-30T03:53:55;0.77;;;0.77;;
13012;SDS011;22580;57.670;12.006;2023-07-30T03:56:22;0.90;;;0.90;;
13012;SDS011;22580;57.670;12.006;2023-07-30T03:58:50;0.77;;;0.75;;
13012;SDS011;22580;57.670;12.006;2023-07-30T04:01:17;1.60;;;1.20;;
13012;SDS011;22580;57.670;12.006;2023-07-30T04:03:44;1.30;;;1.20;;
13012;SDS011;22580;57.670;12.006;2023-07-30T04:06:12;0.90;;;0.90;;
13012;SDS011;22580;57.670;12.006;2023-07-30T04:08:39;1.00;;;1.00;;
13012;SDS011;22580;57.670;12.006;2023-07-30T04:11:07;1.88;;;1.30;;
13012;SDS011;22580;57.670;12.006;2023-07-30T04:13:34;1.30;;;1.10;;
13012;SDS011;22580;57.670;12.006;2023-07-30T04:16:01;0.70;;;0.70;;
13012;SDS011;22580;57.670;12.006;2023-07-30T04:18:28;0.95;;;0.90;;
13012;SDS011;22580;57.670;12.006;2023-07-30T04:20:55;1.30;;;1.20;;
13012;SDS011;22580;57.670;12.006;2023-07-30T04:23:23;0.82;;;0.82;;
13012;SDS011;22580;57.670;12.006;2023-07-30T04:25:49;0.90;;;0.90;;
13012;SDS011;22580;57.670;12.006;2023-07-30T04:28:19;0.68;;;0.68;;
13012;SDS011;22580;57.670;12.006;2023-07-30T04:30:46;0.55;;;0.55;;
13012;SDS011;22580;57.670;12.006;2023-07-30T04:33:14;0.80;;;0.80;;
13012;SDS011;22580;57.670;12.006;2023-07-30T04:35:42;1.27;;;1.20;;
13012;SDS011;22580;57.670;12.006;2023-07-30T04:38:09;1.10;;;1.00;;
13012;SDS011;22580;57.670;12.006;2023-07-30T04:40:36;1.23;;;1.10;;
13012;SDS011;22580;57.670;12.006;2023-07-30T04:43:03;1.00;;;0.90;;
13012;SDS011;22580;57.670;12.006;2023-07-30T04:45:32;0.70;;;0.70;;
13012;SDS011;22580;57.670;12.006;2023-07-30T04:47:59;0.60;;;0.60;;
13012;SDS011;22580;57.670;12.006;2023-07-30T04:50:25;0.60;;;0.60;;
13012;SDS011;22580;57.670;12.006;2023-07-30T04:52:52;0.60;;;0.60;;
13012;SDS011;22580;57.670;12.006;2023-07-30T04:55:19;0.70;;;0.70;;
13012;SDS011;22580;57.670;12.006;2023-07-30T04:57:48;0.70;;;0.70;;
13012;SDS011;22580;57.670;12.006;2023-07-30T05:00:17;0.70;;;0.70;;
13012;SDS011;22580;57.670;12.006;2023-07-30T05:02:46;0.68;;;0.60;;
13012;SDS011;22580;57.670;12.006;2023-07-30T05:05:13;0.50;;;0.50;;
13012;SDS011;22580;57.670;12.006;2023-07-30T05:07:41;0.50;;;0.50;;
13012;SDS011;22580;57.670;12.006;2023-07-30T05:10:08;0.40;;;0.40;;
13012;SDS011;22580;57.670;12.006;2023-07-30T05:12:36;0.57;;;0.30;;
13012;SDS011;22580;57.670;12.006;2023-07-30T05:15:04;0.57;;;0.50;;
13012;SDS011;22580;57.670;12.006;2023-07-30T05:17:32;0.57;;;0.57;;
13012;SDS011;22580;57.670;12.006;2023-07-30T05:20:00;0.65;;;0.65;;
13012;SDS011;22580;57.670;12.006;2023-07-30T05:22:27;0.70;;;0.70;;
13012;SDS011;22580;57.670;12.006;2023-07-30T05:24:54;0.90;;;0.90;;
13012;SDS011;22580;57.670;12.006;2023-07-30T05:27:21;0.90;;;0.90;;
13012;SDS011;22580;57.670;12.006;2023-07-30T05:29:48;1.80;;;1.27;;
13012;SDS011;22580;57.670;12.006;2023-07-30T05:32:16;1.20;;;1.20;;
13012;SDS011;22580;57.670;12.006;2023-07-30T05:34:45;1.35;;;1.25;;
13012;SDS011;22580;57.670;12.006;2023-07-30T05:37:14;0.95;;;0.95;;
13012;SDS011;22580;57.670;12.006;2023-07-30T05:39:41;1.00;;;1.00;;
13012;SDS011;22580;57.670;12.006;2023-07-30T05:42:09;1.73;;;1.10;;
13012;SDS011;22580;57.670;12.006;2023-07-30T05:44:36;1.02;;;1.02;;
13012;SDS011;22580;57.670;12.006;2023-07-30T05:47:03;1.00;;;1.00;;
13012;SDS011;22580;57.670;12.006;2023-07-30T05:49:30;1.02;;;1.02;;
13012;SDS011;22580;57.670;12.006;2023-07-30T05:51:57;1.25;;;1.00;;
13012;SDS011;22580;57.670;12.006;2023-07-30T05:54:25;1.23;;;1.13;;
13012;SDS011;22580;57.670;12.006;2023-07-30T05:56:52;1.00;;;1.00;;
13012;SDS011;22580;57.670;12.006;2023-07-30T05:59:19;1.70;;;1.60;;
13012;SDS011;22580;57.670;12.006;2023-07-30T06:01:46;1.48;;;1.38;;
13012;SDS011;22580;57.670;12.006;2023-07-30T06:04:13;1.00;;;1.00;;
13012;SDS011;22580;57.670;12.006;2023-07-30T06:06:40;0.90;;;0.90;;
13012;SDS011;22580;57.670;12.006;2023-07-30T06:09:07;1.00;;;1.00;;
13012;SDS011;22580;57.670;12.006;2023-07-30T06:11:35;1.23;;;1.20;;
13012;SDS011;22580;57.670;12.006;2023-07-30T06:14:02;1.58;;;1.48;;
13012;SDS011;22580;57.670;12.006;2023-07-30T06:16:29;1.77;;;1.67;;
13012;SDS011;22580;57.670;12.006;2023-07-30T06:18:56;2.15;;;1.50;;
13012;SDS011;22580;57.670;12.006;2023-07-30T06:21:23;1.20;;;1.10;;
13012;SDS011;22580;57.670;12.006;2023-07-30T06:23:50;1.20;;;1.20;;
13012;SDS011;22580;57.670;12.006;2023-07-30T06:26:17;1.77;;;1.10;;
13012;SDS011;22580;57.670;12.006;2023-07-30T06:28:45;1.40;;;1.30;;
13012;SDS011;22580;57.670;12.006;2023-07-30T06:31:12;1.25;;;1.20;;
13012;SDS011;22580;57.670;12.006;2023-07-30T06:33:39;2.05;;;1.60;;
13012;SDS011;22580;57.670;12.006;2023-07-30T06:36:06;1.90;;;1.80;;
13012;SDS011;22580;57.670;12.006;2023-07-30T06:38:33;1.60;;;1.50;;
13012;SDS011;22580;57.670;12.006;2023-07-30T06:41:00;1.52;;;1.42;;
13012;SDS011;22580;57.670;12.006;2023-07-30T06:43:28;1.27;;;1.27;;
13012;SDS011;22580;57.670;12.006;2023-07-30T06:45:56;1.20;;;1.20;;
13012;SDS011;22580;57.670;12.006;2023-07-30T06:48:23;1.05;;;1.00;;
13012;SDS011;22580;57.670;12.006;2023-07-30T06:50:50;2.10;;;1.25;;
13012;SDS011;22580;57.670;12.006;2023-07-30T06:53:17;1.20;;;1.20;;
13012;SDS011;22580;57.670;12.006;2023-07-30T06:55:44;1.33;;;1.27;;
13012;SDS011;22580;57.670;12.006;2023-07-30T06:58:11;1.13;;;1.13;;
13012;SDS011;22580;57.670;12.006;2023-07-30T07:00:39;1.52;;;1.42;;
13012;SDS011;22580;57.670;12.006;2023-07-30T07:03:07;1.60;;;1.50;;
13012;SDS011;22580;57.670;12.006;2023-07-30T07:05:34;2.20;;;1.65;;
13012;SDS011;22580;57.670;12.006;2023-07-30T07:08:01;1.55;;;1.45;;
13012;SDS011;22580;57.670;12.006;2023-07-30T07:10:28;1.40;;;1.30;;
13012;SDS011;22580;57.670;12.006;2023-07-30T07:12:55;1.23;;;1.13;;
13012;SDS011;22580;57.670;12.006;2023-07-30T07:15:22;0.90;;;0.90;;
13012;SDS011;22580;57.670;12.006;2023-07-30T07:17:49;0.70;;;0.70;;
13012;SDS011;22580;57.670;12.006;2023-07-30T07:20:18;0.82;;;0.80;;
13012;SDS011;22580;57.670;12.006;2023-07-30T07:22:44;0.98;;;0.95;;
13012;SDS011;22580;57.670;12.006;2023-07-30T07:25:11;1.10;;;1.10;;
13012;SDS011;22580;57.670;12.006;2023-07-30T07:27:38;1.90;;;1.40;;
13012;SDS011;22580;57.670;12.006;2023-07-30T07:30:07;1.30;;;1.20;;
13012;SDS011;22580;57.670;12.006;2023-07-30T07:32:36;1.75;;;1.65;;
13012;SDS011;22580;57.670;12.006;2023-07-30T07:35:04;1.70;;;1.60;;
13012;SDS011;22580;57.670;12.006;2023-07-30T07:37:33;1.50;;;1.40;;
13012;SDS011;22580;57.670;12.006;2023-07-30T07:40:00;1.83;;;1.73;;
13012;SDS011;22580;57.670;12.006;2023-07-30T07:42:28;2.00;;;1.90;;
13012;SDS011;22580;57.670;12.006;2023-07-30T07:44:58;1.65;;;1.58;;
13012;SDS011;22580;57.670;12.006;2023-07-30T07:47:25;1.80;;;1.70;;
13012;SDS011;22580;57.670;12.006;2023-07-30T07:49:52;2.00;;;1.80;;
13012;SDS011;22580;57.670;12.006;2023-07-30T07:52:19;1.60;;;1.50;;
13012;SDS011;22580;57.670;12.006;2023-07-30T07:54:47;1.80;;;1.70;;
13012;SDS011;22580;57.670;12.006;2023-07-30T07:57:14;2.03;;;1.90;;
13012;SDS011;22580;57.670;12.006;2023-07-30T07:59:41;2.00;;;1.90;;
13012;SDS011;22580;57.670;12.006;2023-07-30T08:02:10;2.13;;;2.00;;
13012;SDS011;22580;57.670;12.006;2023-07-30T08:04:39;1.60;;;1.50;;
13012;SDS011;22580;57.670;12.006;2023-07-30T08:07:06;1.20;;;1.20;;
13012;SDS011;22580;57.670;12.006;2023-07-30T08:09:33;1.50;;;1.40;;
13012;SDS011;22580;57.670;12.006;2023-07-30T08:12:02;2.35;;;1.90;;
13012;SDS011;22580;57.670;12.006;2023-07-30T08:14:30;1.85;;;1.75;;
13012;SDS011;22580;57.670;12.006;2023-07-30T08:16:59;2.30;;;1.70;;
13012;SDS011;22580;57.670;12.006;2023-07-30T08:19:26;2.53;;;1.77;;
13012;SDS011;22580;57.670;12.006;2023-07-30T08:21:53;1.50;;;1.40;;
13012;SDS011;22580;57.670;12.006;2023-07-30T08:24:21;3.22;;;1.52;;
13012;SDS011;22580;57.670;12.006;2023-07-30T08:26:48;1.63;;;1.52;;
13012;SDS011;22580;57.670;12.006;2023-07-30T08:29:17;1.23;;;1.23;;
13012;SDS011;22580;57.670;12.006;2023-07-30T08:31:43;1.50;;;1.30;;
13012;SDS011;22580;57.670;12.006;2023-07-30T08:34:10;2.50;;;1.70;;
13012;SDS011;22580;57.670;12.006;2023-07-30T08:36:37;1.95;;;1.75;;
13012;SDS011;22580;57.670;12.006;2023-07-30T08:39:04;2.33;;;1.80;;
13012;SDS011;22580;57.670;12.006;2023-07-30T08:41:31;1.80;;;1.70;;
13012;SDS011;22580;57.670;12.006;2023-07-30T08:43:58;1.08;;;1.08;;
13012;SDS011;22580;57.670;12.006;2023-07-30T08:46:27;1.35;;;1.25;;
13012;SDS011;22580;57.670;12.006;2023-07-30T08:48:54;2.10;;;1.80;;
13012;SDS011;22580;57.670;12.006;2023-07-30T08:51:22;1.42;;;1.35;;
13012;SDS011;22580;57.670;12.006;2023-07-30T08:53:50;2.88;;;2.00;;
13012;SDS011;22580;57.670;12.006;2023-07-30T08:56:18;2.72;;;2.00;;
13012;SDS011;22580;57.670;12.006;2023-07-30T08:58:45;1.88;;;1.77;;
13012;SDS011;22580;57.670;12.006;2023-07-30T09:01:14;2.25;;;2.00;;
13012;SDS011;22580;57.670;12.006;2023-07-30T09:03:46;2.85;;;1.90;;
13012;SDS011;22580;57.670;12.006;2023-07-30T09:06:16;2.30;;;2.10;;
13012;SDS011;22580;57.670;12.006;2023-07-30T09:08:43;2.35;;;2.15;;
13012;SDS011;22580;57.670;12.006;2023-07-30T09:11:10;2.95;;;2.50;;
13012;SDS011;22580;57.670;12.006;2023-07-30T09:13:37;4.53;;;2.30;;
13012;SDS011;22580;57.670;12.006;2023-07-30T09:16:08;2.30;;;2.10;;
13012;SDS011;22580;57.670;12.006;2023-07-30T09:18:39;3.42;;;2.60;;
13012;SDS011;22580;57.670;12.006;2023-07-30T09:21:09;2.95;;;2.53;;
13012;SDS011;22580;57.670;12.006;2023-07-30T09:23:40;3.05;;;2.10;;
13012;SDS011;22580;57.670;12.006;2023-07-30T09:26:08;2.58;;;2.20;;
13012;SDS011;22580;57.670;12.006;2023-07-30T09:28:35;2.60;;;2.15;;
13012;SDS011;22580;57.670;12.006;2023-07-30T09:31:03;5.07;;;2.90;;
13012;SDS011;22580;57.670;12.006;2023-07-30T09:33:31;3.28;;;2.50;;
13012;SDS011;22580;57.670;12.006;2023-07-30T09:35:58;2.80;;;2.20;;
13012;SDS011;22580;57.670;12.006;2023-07-30T09:38:28;3.35;;;2.42;;
13012;SDS011;22580;57.670;12.006;2023-07-30T09:41:00;3.95;;;2.47;;
13012;SDS011;22580;57.670;12.006;2023-07-30T09:43:28;5.88;;;3.22;;
13012;SDS011;22580;57.670;12.006;2023-07-30T09:46:00;3.50;;;2.60;;
13012;SDS011;22580;57.670;12.006;2023-07-30T09:48:29;2.40;;;2.03;;
13012;SDS011;22580;57.670;12.006;2023-07-30T09:50:56;2.38;;;1.70;;
13012;SDS011;22580;57.670;12.006;2023-07-30T09:53:28;1.38;;;1.27;;
13012;SDS011;22580;57.670;12.006;2023-07-30T09:55:59;2.95;;;1.50;;
13012;SDS011;22580;57.670;12.006;2023-07-30T09:58:28;1.30;;;1.20;;
13012;SDS011;22580;57.670;12.006;2023-07-30T10:00:55;1.60;;;1.38;;
13012;SDS011;22580;57.670;12.006;2023-07-30T10:03:25;1.95;;;1.30;;
13012;SDS011;22580;57.670;12.006;2023-07-30T10:05:53;2.42;;;1.52;;
13012;SDS011;22580;57.670;12.006;2023-07-30T10:08:25;1.83;;;1.42;;
13012;SDS011;22580;57.670;12.006;2023-07-30T10:10:56;1.70;;;1.60;;
13012;SDS011;22580;57.670;12.006;2023-07-30T10:13:25;1.38;;;1.17;;
13012;SDS011;22580;57.670;12.006;2023-07-30T10:15:53;1.50;;;1.40;;
13012;SDS011;22580;57.670;12.006;2023-07-30T10:18:23;1.50;;;1.40;;
13012;SDS011;22580;57.670;12.006;2023-07-30T10:20:59;1.70;;;1.60;;
13012;SDS011;22580;57.670;12.006;2023-07-30T10:23:27;1.80;;;1.50;;
13012;SDS011;22580;57.670;12.006;2023-07-30T10:25:55;1.85;;;1.55;;
13012;SDS011;22580;57.670;12.006;2023-07-30T10:28:26;1.48;;;1.38;;
13012;SDS011;22580;57.670;12.006;2023-07-30T10:30:56;1.52;;;1.42;;
13012;SDS011;22580;57.670;12.006;2023-07-30T10:33:24;1.25;;;1.25;;
13012;SDS011;22580;57.670;12.006;2023-07-30T10:36:10;2.55;;;1.60;;
13012;SDS011;22580;57.670;12.006;2023-07-30T10:38:38;2.55;;;1.50;;
13012;SDS011;22580;57.670;12.006;2023-07-30T10:41:09;2.20;;;1.40;;
13012;SDS011;22580;57.670;12.006;2023-07-30T10:43:37;1.67;;;1.20;;
13012;SDS011;22580;57.670;12.006;2023-07-30T10:46:08;2.83;;;1.50;;
13012;SDS011;22580;57.670;12.006;2023-07-30T10:48:37;1.40;;;1.30;;
13012;SDS011;22580;57.670;12.006;2023-07-30T10:51:06;1.42;;;1.33;;
13012;SDS011;22580;57.670;12.006;2023-07-30T10:53:35;1.55;;;1.30;;
13012;SDS011;22580;57.670;12.006;2023-07-30T10:56:02;1.95;;;1.65;;
13012;SDS011;22580;57.670;12.006;2023-07-30T10:58:32;1.20;;;1.20;;
13012;SDS011;22580;57.670;12.006;2023-07-30T11:01:01;1.80;;;1.50;;
13012;SDS011;22580;57.670;12.006;2023-07-30T11:03:31;1.60;;;1.35;;
13012;SDS011;22580;57.670;12.006;2023-07-30T11:05:59;1.33;;;1.23;;
13012;SDS011;22580;57.670;12.006;2023-07-30T11:08:35;2.40;;;1.48;;
13012;SDS011;22580;57.670;12.006;2023-07-30T11:11:06;2.13;;;1.63;;
13012;SDS011;22580;57.670;12.006;2023-07-30T11:13:39;2.10;;;1.42;;
13012;SDS011;22580;57.670;12.006;2023-07-30T11:16:07;1.40;;;1.30;;
13012;SDS011;22580;57.670;12.006;2023-07-30T11:18:35;1.35;;;1.20;;
13012;SDS011;22580;57.670;12.006;2023-07-30T11:21:03;2.13;;;1.38;;
13012;SDS011;22580;57.670;12.006;2023-07-30T11:23:31;1.10;;;1.00;;
13012;SDS011;22580;57.670;12.006;2023-07-30T11:26:00;1.48;;;1.38;;
13012;SDS011;22580;57.670;12.006;2023-07-30T11:28:28;1.50;;;1.40;;
13012;SDS011;22580;57.670;12.006;2023-07-30T11:30:59;1.58;;;1.10;;
13012;SDS011;22580;57.670;12.006;2023-07-30T11:33:28;1.25;;;1.10;;
13012;SDS011;22580;57.670;12.006;2023-07-30T11:35:55;1.52;;;1.13;;
13012;SDS011;22580;57.670;12.006;2023-07-30T11:38:23;2.67;;;1.48;;
13012;SDS011;22580;57.670;12.006;2023-07-30T11:40:51;1.88;;;1.70;;
13012;SDS011;22580;57.670;12.006;2023-07-30T11:43:20;1.92;;;1.30;;
13012;SDS011;22580;57.670;12.006;2023-07-30T11:45:47;1.63;;;1.30;;
13012;SDS011;22580;57.670;12.006;2023-07-30T11:48:15;1.17;;;1.05;;
13012;SDS011;22580;57.670;12.006;2023-07-30T11:50:46;2.15;;;1.40;;
13012;SDS011;22580;57.670;12.006;2023-07-30T11:53:14;1.70;;;1.60;;
13012;SDS011;22580;57.670;12.006;2023-07-30T11:55:42;2.20;;;1.50;;
13012;SDS011;22580;57.670;12.006;2023-07-30T11:58:10;2.40;;;1.50;;
13012;SDS011;22580;57.670;12.006;2023-07-30T12:00:38;2.33;;;1.50;;
13012;SDS011;22580;57.670;12.006;2023-07-30T12:03:06;1.45;;;1.23;;
13012;SDS011;22580;57.670;12.006;2023-07-30T12:05:38;1.70;;;1.60;;
13012;SDS011;22580;57.670;12.006;2023-07-30T12:08:06;1.67;;;1.40;;
13012;SDS011;22580;57.670;12.006;2023-07-30T12:10:43;1.58;;;1.40;;
13012;SDS011;22580;57.670;12.006;2023-07-30T12:13:11;1.52;;;1.38;;
13012;SDS011;22580;57.670;12.006;2023-07-30T12:15:39;1.30;;;1.20;;
13012;SDS011;22580;57.670;12.006;2023-07-30T12:18:10;1.58;;;1.48;;
13012;SDS011;22580;57.670;12.006;2023-07-30T12:20:39;2.40;;;1.30;;
13012;SDS011;22580;57.670;12.006;2023-07-30T12:23:06;1.05;;;1.05;;
13012;SDS011;22580;57.670;12.006;2023-07-30T12:25:33;1.42;;;1.33;;
13012;SDS011;22580;57.670;12.006;2023-07-30T12:28:00;1.88;;;1.38;;
13012;SDS011;22580;57.670;12.006;2023-07-30T12:30:27;1.50;;;1.40;;
13012;SDS011;22580;57.670;12.006;2023-07-30T12:32:55;1.45;;;1.15;;
13012;SDS011;22580;57.670;12.006;2023-07-30T12:35:22;1.20;;;1.15;;
13012;SDS011;22580;57.670;12.006;2023-07-30T12:37:51;1.50;;;1.20;;
13012;SDS011;22580;57.670;12.006;2023-07-30T12:40:18;2.67;;;1.63;;
13012;SDS011;22580;57.670;12.006;2023-07-30T12:42:45;2.92;;;1.55;;
13012;SDS011;22580;57.670;12.006;2023-07-30T12:45:12;2.85;;;1.52;;
13012;SDS011;22580;57.670;12.006;2023-07-30T12:47:39;2.53;;;2.33;;
13012;SDS011;22580;57.670;12.006;2023-07-30T12:50:07;2.20;;;1.85;;
13012;SDS011;22580;57.670;12.006;2023-07-30T12:52:34;2.72;;;2.10;;
13012;SDS011;22580;57.670;12.006;2023-07-30T12:55:03;3.10;;;2.88;;
13012;SDS011;22580;57.670;12.006;2023-07-30T12:57:31;4.55;;;3.38;;
13012;SDS011;22580;57.670;12.006;2023-07-30T12:59:58;2.17;;;1.98;;
13012;SDS011;22580;57.670;12.006;2023-07-30T13:02:25;3.22;;;1.90;;
13012;SDS011;22580;57.670;12.006;2023-07-30T13:04:52;2.75;;;2.30;;
13012;SDS011;22580;57.670;12.006;2023-07-30T13:07:19;2.53;;;1.40;;
13012;SDS011;22580;57.670;12.006;2023-07-30T13:09:46;1.73;;;1.10;;
13012;SDS011;22580;57.670;12.006;2023-07-30T13:12:15;1.33;;;1.20;;
13012;SDS011;22580;57.670;12.006;2023-07-30T13:14:45;1.20;;;1.10;;
13012;SDS011;22580;57.670;12.006;2023-07-30T13:17:14;1.30;;;1.17;;
13012;SDS011;22580;57.670;12.006;2023-07-30T13:19:41;1.52;;;1.30;;
13012;SDS011;22580;57.670;12.006;2023-07-30T13:22:08;1.95;;;1.40;;
13012;SDS011;22580;57.670;12.006;2023-07-30T13:24:34;1.40;;;1.17;;
13012;SDS011;22580;57.670;12.006;2023-07-30T13:27:01;1.67;;;1.00;;
13012;SDS011;22580;57.670;12.006;2023-07-30T13:29:30;0.82;;;0.82;;
13012;SDS011;22580;57.670;12.006;2023-07-30T13:31:58;1.20;;;1.10;;
13012;SDS011;22580;57.670;12.006;2023-07-30T13:34:24;1.30;;;1.20;;
13012;SDS011;22580;57.670;12.006;2023-07-30T13:36:51;1.40;;;1.00;;
13012;SDS011;22580;57.670;12.006;2023-07-30T13:39:19;1.02;;;0.95;;
13012;SDS011;22580;57.670;12.006;2023-07-30T13:41:46;1.65;;;1.08;;
13012;SDS011;22580;57.670;12.006;2023-07-30T13:44:13;1.05;;;0.98;;
13012;SDS011;22580;57.670;12.006;2023-07-30T13:46:41;1.40;;;1.00;;
13012;SDS011;22580;57.670;12.006;2023-07-30T13:49:08;1.17;;;1.00;;
13012;SDS011;22580;57.670;12.006;2023-07-30T13:51:35;1.20;;;0.90;;
13012;SDS011;22580;57.670;12.006;2023-07-30T13:54:02;1.05;;;0.95;;
13012;SDS011;22580;57.670;12.006;2023-07-30T13:56:33;1.67;;;1.17;;
13012;SDS011;22580;57.670;12.006;2023-07-30T13:59:00;1.05;;;0.98;;
13012;SDS011;22580;57.670;12.006;2023-07-30T14:01:28;1.80;;;1.27;;
13012;SDS011;22580;57.670;12.006;2023-07-30T14:03:57;1.55;;;1.02;;
13012;SDS011;22580;57.670;12.006;2023-07-30T14:06:24;1.10;;;1.00;;
13012;SDS011;22580;57.670;12.006;2023-07-30T14:08:51;1.20;;;1.10;;
13012;SDS011;22580;57.670;12.006;2023-07-30T14:11:18;1.40;;;0.95;;
13012;SDS011;22580;57.670;12.006;2023-07-30T14:13:45;1.80;;;1.02;;
13012;SDS011;22580;57.670;12.006;2023-07-30T14:16:12;1.17;;;0.82;;
13012;SDS011;22580;57.670;12.006;2023-07-30T14:18:39;1.17;;;1.08;;
13012;SDS011;22580;57.670;12.006;2023-07-30T14:21:07;1.10;;;1.00;;
13012;SDS011;22580;57.670;12.006;2023-07-30T14:23:34;1.10;;;1.00;;
13012;SDS011;22580;57.670;12.006;2023-07-30T14:26:02;1.13;;;1.10;;
13012;SDS011;22580;57.670;12.006;2023-07-30T14:28:29;1.48;;;1.02;;
13012;SDS011;22580;57.670;12.006;2023-07-30T14:30:56;1.10;;;0.82;;
13012;SDS011;22580;57.670;12.006;2023-07-30T14:33:22;0.90;;;0.90;;
13012;SDS011;22580;57.670;12.006;2023-07-30T14:35:49;0.98;;;0.90;;